Time;durP1;ratioP1;P1;durP2;ratioP2;P2;SDS_P1;SDS_P2;PMS_P1;PMS_P2;Temp;Humidity;BMP_temperature;BMP_pressure;BME280_temperature;BME280_humidity;BME280_pressure;Samples;Min_cycle;Max_cycle;Signal;HPM_P1;HPM_P2
2023/12/30 00:01:05;;;;;;;;;6.67;4.00;;;;;11.03;79.83;101177.41;5055966;28;46224;-72
2023/12/30 00:03:30;;;;;;;;;6.33;3.00;;;;;11.03;79.73;101185.25;5046233;28;45444;-64
2023/12/30 00:05:56;;;;;;;;;4.00;3.00;;;;;11.04;80.16;101184.38;5053350;28;45489;-62
2023/12/30 00:08:22;;;;;;;;;6.33;2.33;;;;;10.97;79.77;101172.09;5053762;28;45804;-63
2023/12/30 00:10:47;;;;;;;;;4.00;4.00;;;;;10.95;80.02;101160.72;5052843;28;46127;-60
2023/12/30 00:13:16;;;;;;;;;8.67;4.00;;;;;11.04;79.69;101170.41;5053155;28;45406;-64
2023/12/30 00:15:42;;;;;;;;;3.33;3.00;;;;;10.87;79.95;101145.81;5052137;28;45378;-61
2023/12/30 00:18:11;;;;;;;;;6.67;4.00;;;;;10.91;79.37;101153.69;5054704;28;45407;-65
2023/12/30 00:20:36;;;;;;;;;2.67;2.00;;;;;11.00;79.75;101169.50;5051751;28;45476;-59
2023/12/30 00:23:02;;;;;;;;;5.00;5.00;;;;;11.06;79.35;101181.78;5051904;28;45572;-65
2023/12/30 00:25:35;;;;;;;;;6.33;5.67;;;;;11.07;79.22;101177.41;5053442;28;45475;-65
2023/12/30 00:28:01;;;;;;;;;8.33;4.67;;;;;11.07;79.38;101177.41;5055453;28;45524;-60
2023/12/30 00:30:26;;;;;;;;;9.67;5.00;;;;;10.71;79.25;101118.63;5051608;28;46502;-68
2023/12/30 00:32:54;;;;;;;;;4.33;4.00;;;;;10.88;79.60;101144.94;5050526;28;45470;-61
2023/12/30 00:35:21;;;;;;;;;5.33;4.33;;;;;11.06;78.95;101180.88;5052475;28;45443;-61
2023/12/30 00:37:46;;;;;;;;;6.00;3.00;;;;;11.06;79.05;101173.03;5036207;28;45341;-64
2023/12/30 00:40:12;;;;;;;;;4.00;2.67;;;;;10.68;79.27;101113.34;5055204;28;46252;-60
2023/12/30 00:42:39;;;;;;;;;5.67;3.33;;;;;10.91;79.24;101153.69;5055466;28;45980;-60
2023/12/30 00:45:06;;;;;;;;;8.33;4.00;;;;;11.02;79.41;101180.88;5058174;28;45576;-60
2023/12/30 00:47:31;;;;;;;;;6.00;3.00;;;;;10.67;79.29;101130.81;5051678;28;45500;-66
2023/12/30 00:49:57;;;;;;;;;3.00;3.00;;;;;10.94;79.36;101176.44;5056695;28;45607;-62
2023/12/30 00:52:22;;;;;;;;;4.67;4.00;;;;;10.26;79.65;101060.63;5056225;28;45395;-62
2023/12/30 00:54:48;;;;;;;;;3.33;3.00;;;;;10.87;79.91;101167.66;5057007;28;45383;-63
2023/12/30 00:57:14;;;;;;;;;6.00;3.33;;;;;10.93;79.76;101170.31;5057344;28;45517;-61
2023/12/30 00:59:41;;;;;;;;;7.33;3.00;;;;;10.81;79.58;101152.75;5038594;28;46329;-60
2023/12/30 01:02:06;;;;;;;;;5.00;5.00;;;;;10.91;79.29;101177.28;5056725;28;45481;-61
2023/12/30 01:04:32;;;;;;;;;9.33;3.67;;;;;10.24;79.85;101069.31;5056117;28;45451;-61
2023/12/30 01:06:58;;;;;;;;;5.67;4.00;;;;;10.91;79.33;101187.75;5056183;28;45493;-62
2023/12/30 01:09:23;;;;;;;;;5.33;4.00;;;;;10.89;79.72;101175.53;5056188;28;46418;-61
2023/12/30 01:11:50;;;;;;;;;3.00;3.00;;;;;10.84;79.63;101170.25;5038269;28;45492;-61
2023/12/30 01:14:15;;;;;;;;;6.67;4.00;;;;;10.87;79.82;101179.88;5056668;28;45270;-60
2023/12/30 01:16:41;;;;;;;;;8.00;3.67;;;;;10.71;79.90;101165.78;5056362;28;45458;-59
2023/12/30 01:19:07;;;;;;;;;5.33;3.00;;;;;10.79;80.24;101185.06;5056264;28;45738;-59
2023/12/30 01:21:33;;;;;;;;;4.33;2.33;;;;;10.78;79.61;101185.94;5038437;28;45829;-62
2023/12/30 01:23:59;;;;;;;;;8.67;6.33;;;;;10.78;79.58;101180.69;5057142;28;45404;-70
2023/12/30 01:26:24;;;;;;;;;2.00;2.00;;;;;10.74;79.89;101182.38;5056813;28;45390;-61
2023/12/30 01:28:50;;;;;;;;;6.00;3.67;;;;;10.67;79.71;101167.50;5050790;28;45370;-67
2023/12/30 01:31:18;;;;;;;;;4.00;3.00;;;;;10.46;79.01;101138.50;5053213;28;45506;-60
2023/12/30 01:33:45;;;;;;;;;4.00;4.00;;;;;10.68;79.97;101171.88;5053614;28;45591;-60
2023/12/30 01:36:12;;;;;;;;;3.33;3.00;;;;;10.67;79.60;101175.34;5055008;28;45463;-61
2023/12/30 01:38:41;;;;;;;;;7.00;4.00;;;;;10.53;79.49;101148.16;5052621;28;45559;-59
2023/12/30 01:41:07;;;;;;;;;8.33;6.00;;;;;10.70;79.41;101179.72;5044768;28;46298;-62
2023/12/30 01:43:32;;;;;;;;;4.00;3.33;;;;;10.67;79.74;101185.81;5038903;28;45559;-71
2023/12/30 01:46:03;;;;;;;;;4.00;3.00;;;;;10.54;79.07;101174.38;5028132;28;45581;-63
2023/12/30 01:48:30;;;;;;;;;5.00;5.00;;;;;10.66;79.51;101191.06;5045459;28;45340;-60
2023/12/30 01:51:04;;;;;;;;;4.67;3.00;;;;;10.59;79.35;101188.38;5045006;28;45259;-62
2023/12/30 01:53:32;;;;;;;;;5.00;3.00;;;;;10.60;79.21;101191.88;5043090;28;45379;-66
2023/12/30 01:56:05;;;;;;;;;3.00;3.00;;;;;10.61;79.41;101197.13;5055069;28;45378;-73
2023/12/30 01:58:40;;;;;;;;;5.00;2.00;;;;;10.64;79.52;101190.19;5054877;28;45533;-62
2023/12/30 02:01:15;;;;;;;;;5.00;4.00;;;;;10.52;79.43;101170.84;5035615;28;45593;-69
2023/12/30 02:03:57;;;;;;;;;7.33;3.33;;;;;10.55;79.00;101183.09;5055742;28;45347;-65
2023/12/30 02:06:24;;;;;;;;;4.67;3.33;;;;;10.46;79.09;101167.28;5050650;28;45602;-62
2023/12/30 02:08:49;;;;;;;;;5.33;2.00;;;;;10.45;79.09;101168.19;5030183;28;45682;-62
2023/12/30 02:11:15;;;;;;;;;4.00;2.67;;;;;10.56;78.95;101201.47;5031854;28;45378;-61
2023/12/30 02:13:44;;;;;;;;;6.00;3.67;;;;;10.60;77.96;101215.44;5054211;28;45351;-63
2023/12/30 02:16:10;;;;;;;;;2.67;2.67;;;;;10.55;79.05;101212.78;5051685;28;45354;-63
2023/12/30 02:18:36;;;;;;;;;2.00;2.00;;;;;10.42;78.99;101202.16;5057654;28;46222;-61
2023/12/30 02:21:02;;;;;;;;;4.33;2.00;;;;;10.28;78.90;101187.22;5050682;28;45501;-62
2023/12/30 02:23:28;;;;;;;;;2.00;1.00;;;;;10.52;78.85;101228.47;5055270;28;45339;-61
2023/12/30 02:25:53;;;;;;;;;9.00;4.00;;;;;10.49;78.77;101228.47;5052936;28;45268;-66
2023/12/30 02:28:19;;;;;;;;;5.33;3.00;;;;;10.54;79.05;101232.00;5052707;28;46349;-68
2023/12/30 02:30:45;;;;;;;;;5.33;3.00;;;;;10.54;78.81;101233.75;5054046;28;47016;-64
2023/12/30 02:33:10;;;;;;;;;4.33;3.00;;;;;10.52;78.46;101233.72;5059908;28;45317;-66
2023/12/30 02:35:36;;;;;;;;;3.00;3.00;;;;;10.56;78.87;101234.63;5055762;28;45434;-65
2023/12/30 02:38:01;;;;;;;;;7.00;3.00;;;;;10.57;78.50;101244.25;5047612;28;45543;-62
2023/12/30 02:40:27;;;;;;;;;9.33;2.00;;;;;10.42;78.65;101220.50;5054006;28;45343;-69
2023/12/30 02:42:56;;;;;;;;;4.67;3.00;;;;;10.48;78.70;101220.56;5051034;28;45522;-72
2023/12/30 02:45:24;;;;;;;;;3.33;3.00;;;;;10.43;79.02;101217.91;5041282;28;45544;-67
2023/12/30 02:47:58;;;;;;;;;9.00;3.00;;;;;10.38;78.99;101206.50;5058476;28;46157;-69
2023/12/30 02:50:24;;;;;;;;;2.00;2.00;;;;;10.48;78.75;101228.44;5026356;28;45497;-71
2023/12/30 02:52:50;;;;;;;;;1.00;1.00;;;;;10.33;78.83;101210.81;5058670;28;45476;-67
2023/12/30 02:55:15;;;;;;;;;2.00;2.00;;;;;10.42;79.29;101218.78;5040835;28;45540;-64
2023/12/30 02:57:41;;;;;;;;;5.67;2.33;;;;;10.38;78.86;101215.25;5058833;28;46104;-63
2023/12/30 03:00:07;;;;;;;;;5.67;3.67;;;;;10.53;79.11;101230.22;5059292;28;45659;-64
2023/12/30 03:02:33;;;;;;;;;6.00;2.33;;;;;10.54;78.70;101229.38;5059195;28;45444;-66
2023/12/30 03:04:59;;;;;;;;;4.00;2.00;;;;;10.44;78.78;101203.97;5059597;28;45335;-70
2023/12/30 03:07:26;;;;;;;;;4.00;2.00;;;;;10.51;78.85;101221.50;5046123;28;45694;-64
2023/12/30 03:09:57;;;;;;;;;4.00;3.00;;;;;10.50;79.09;101211.00;5058606;28;45586;-62
2023/12/30 03:12:27;;;;;;;;;5.00;2.67;;;;;10.45;79.13;101208.31;5058542;28;45589;-61
2023/12/30 03:14:53;;;;;;;;;2.67;2.00;;;;;10.59;78.64;101229.41;5059694;28;45644;-60
2023/12/30 03:17:18;;;;;;;;;3.33;3.00;;;;;10.39;78.72;101189.91;5059943;28;45576;-69
2023/12/30 03:19:44;;;;;;;;;3.67;3.67;;;;;10.57;78.99;101224.16;5060097;28;45361;-68
2023/12/30 03:22:09;;;;;;;;;7.00;2.00;;;;;10.57;78.76;101231.16;5059974;28;45449;-70
2023/12/30 03:24:35;;;;;;;;;5.33;3.67;;;;;10.44;79.18;101216.16;5061444;28;45392;-61
2023/12/30 03:27:01;;;;;;;;;6.25;4.25;;;;;10.53;79.23;101230.22;5059407;28;45606;-62
2023/12/30 03:29:26;;;;;;;;;3.33;1.67;;;;;10.51;78.84;101234.59;5058126;28;45470;-60
2023/12/30 03:31:55;;;;;;;;;4.33;2.00;;;;;10.41;79.24;101232.72;5058033;28;45446;-61
2023/12/30 03:34:21;;;;;;;;;9.67;3.00;;;;;10.45;79.25;101242.38;5051810;28;45343;-59
2023/12/30 03:36:46;;;;;;;;;3.33;3.00;;;;;10.44;79.25;101231.88;5059655;28;46179;-61
2023/12/30 03:39:12;;;;;;;;;3.67;2.33;;;;;10.37;79.64;101225.72;5058366;28;46133;-60
2023/12/30 03:41:37;;;;;;;;;7.00;3.00;;;;;10.44;79.17;101243.25;5044110;28;45423;-63
2023/12/30 03:44:03;;;;;;;;;7.33;4.67;;;;;10.41;79.25;101248.44;5058675;28;45496;-63
2023/12/30 03:46:28;;;;;;;;;2.67;2.00;;;;;10.39;79.35;101247.53;5057847;28;45956;-62
2023/12/30 03:48:54;;;;;;;;;5.67;2.33;;;;;10.36;79.55;101250.13;5058016;28;45406;-60
2023/12/30 03:51:19;;;;;;;;;4.00;2.67;;;;;10.24;79.59;101229.88;5058530;28;45463;-60
2023/12/30 03:53:45;;;;;;;;;2.67;2.67;;;;;10.32;79.87;101230.00;5059577;28;45445;-60
2023/12/30 03:56:12;;;;;;;;;3.67;2.33;;;;;10.39;79.47;101239.69;5057923;28;46461;-60
2023/12/30 03:58:37;;;;;;;;;3.00;2.00;;;;;10.25;79.57;101222.91;5058374;28;45265;-60
2023/12/30 04:01:03;;;;;;;;;3.67;2.33;;;;;10.27;79.72;101232.53;5058205;28;45507;-59
2023/12/30 04:03:29;;;;;;;;;5.33;2.33;;;;;10.30;79.94;101245.72;5058052;28;45527;-60
2023/12/30 04:05:54;;;;;;;;;3.00;3.00;;;;;10.28;79.83;101226.47;5057068;28;45311;-58
2023/12/30 04:08:20;;;;;;;;;3.00;2.00;;;;;10.30;79.67;101232.63;5057327;28;45410;-60
2023/12/30 04:10:46;;;;;;;;;4.33;2.00;;;;;10.24;79.75;101218.53;5057791;28;45348;-60
2023/12/30 04:13:11;;;;;;;;;2.33;2.00;;;;;10.32;79.81;101232.63;5057372;28;45368;-60
2023/12/30 04:15:37;;;;;;;;;2.00;2.00;;;;;10.28;80.00;101222.97;5057412;28;46274;-59
2023/12/30 04:18:03;;;;;;;;;3.33;2.33;;;;;10.32;79.24;101236.13;5057745;28;45321;-60
2023/12/30 04:20:28;;;;;;;;;5.33;3.33;;;;;10.31;79.03;101228.25;5058366;28;45489;-61
2023/12/30 04:22:55;;;;;;;;;4.33;2.00;;;;;10.38;79.34;101224.84;5058127;28;45490;-61
2023/12/30 04:25:21;;;;;;;;;3.33;2.00;;;;;10.37;79.46;101228.34;5057183;28;46280;-60
2023/12/30 04:27:47;;;;;;;;;5.67;3.00;;;;;10.39;79.02;101229.19;5057361;28;45754;-60
2023/12/30 04:30:12;;;;;;;;;4.00;1.00;;;;;10.36;78.86;101218.69;5057206;28;45302;-63
2023/12/30 04:32:38;;;;;;;;;3.00;3.00;;;;;10.28;78.87;101205.53;5056955;28;45235;-60
2023/12/30 04:35:05;;;;;;;;;4.00;3.00;;;;;10.37;78.85;101217.84;5057936;28;46124;-61
2023/12/30 04:37:30;;;;;;;;;5.33;2.00;;;;;10.26;78.94;101206.34;5039047;28;46226;-64
2023/12/30 04:39:59;;;;;;;;;4.00;3.00;;;;;10.13;78.79;101185.28;5056785;28;45455;-62
2023/12/30 04:42:25;;;;;;;;;4.00;3.00;;;;;10.16;78.45;101187.91;5057293;28;45581;-64
2023/12/30 04:44:50;;;;;;;;;4.00;1.33;;;;;10.39;78.85;101229.19;5057335;28;46577;-65
2023/12/30 04:47:16;;;;;;;;;4.67;2.67;;;;;10.39;78.87;101234.44;5057551;28;45319;-65
2023/12/30 04:49:42;;;;;;;;;3.00;0.00;;;;;10.19;79.01;101208.88;5057076;28;45363;-70
2023/12/30 04:52:07;;;;;;;;;4.00;2.00;;;;;10.26;78.78;101229.91;5057539;28;45379;-60
2023/12/30 04:54:33;;;;;;;;;2.00;2.00;;;;;10.33;78.86;101234.38;5056846;28;45750;-61
2023/12/30 04:56:58;;;;;;;;;3.67;1.33;;;;;10.19;78.77;101214.13;5057107;28;45508;-60
2023/12/30 04:59:25;;;;;;;;;3.00;2.33;;;;;10.25;78.48;101228.13;5056991;28;45437;-62
2023/12/30 05:01:54;;;;;;;;;5.00;3.00;;;;;10.02;78.51;101210.44;5058399;28;45542;-60
2023/12/30 05:04:20;;;;;;;;;7.00;2.00;;;;;10.12;79.05;101229.75;5062360;28;45332;-60
2023/12/30 05:06:47;;;;;;;;;2.67;2.67;;;;;9.97;79.09;101201.66;5058690;28;45747;-60
2023/12/30 05:09:14;;;;;;;;;4.50;4.00;;;;;10.06;78.96;101233.19;5059603;28;45443;-66
2023/12/30 05:11:44;;;;;;;;;6.67;2.00;;;;;9.97;79.73;101233.94;5057726;28;45381;-61
2023/12/30 05:14:10;;;;;;;;;3.00;3.00;;;;;9.93;79.56;101228.66;5056793;28;45653;-68
2023/12/30 05:16:44;;;;;;;;;6.33;4.00;;;;;9.72;80.02;101214.41;5056566;28;45510;-62
2023/12/30 05:19:11;;;;;;;;;3.00;3.00;;;;;9.77;80.24;101228.47;5056353;28;45542;-65
2023/12/30 05:21:36;;;;;;;;;6.50;5.00;;;;;9.70;80.58;101229.22;5057124;28;45467;-73
2023/12/30 05:24:02;;;;;;;;;4.25;3.00;;;;;9.63;80.60;101219.53;5056730;28;45442;-62
2023/12/30 05:26:27;;;;;;;;;4.25;4.00;;;;;9.59;81.13;101228.22;5056932;28;45521;-59
2023/12/30 05:28:55;;;;;;;;;7.50;4.00;;;;;9.54;81.24;101232.50;5057459;28;45460;-65
2023/12/30 05:31:21;;;;;;;;;6.50;4.25;;;;;9.52;81.73;101219.41;5057081;28;45522;-72
2023/12/30 05:33:47;;;;;;;;;3.25;3.00;;;;;9.37;82.31;101206.09;5056397;28;45484;-59
2023/12/30 05:36:12;;;;;;;;;5.50;3.50;;;;;9.50;81.87;101209.78;5056267;28;45506;-62
2023/12/30 05:38:38;;;;;;;;;6.00;6.00;;;;;9.39;82.46;101199.16;5056603;28;45442;-59
2023/12/30 05:41:10;;;;;;;;;6.25;4.00;;;;;9.17;81.95;101161.38;5056284;28;45244;-60
2023/12/30 05:43:36;;;;;;;;;4.50;4.00;;;;;9.53;82.05;101215.91;5055980;28;46250;-60
2023/12/30 05:46:02;;;;;;;;;3.50;2.00;;;;;9.35;81.99;101184.31;5059205;28;45448;-61
2023/12/30 05:48:28;;;;;;;;;7.50;5.25;;;;;9.46;82.47;101214.06;5059863;28;45432;-61
2023/12/30 05:50:57;;;;;;;;;8.75;5.00;;;;;9.21;82.90;101176.25;5060890;28;45564;-62
2023/12/30 05:53:23;;;;;;;;;7.25;5.00;;;;;9.31;82.79;101183.38;5060915;28;46651;-61
2023/12/30 05:55:51;;;;;;;;;7.25;5.25;;;;;9.36;83.14;101217.41;5059967;28;45495;-62
2023/12/30 05:58:17;;;;;;;;;8.25;7.75;;;;;9.34;83.00;101206.06;5060357;28;45439;-62
2023/12/30 06:00:43;;;;;;;;;12.50;7.50;;;;;9.10;82.88;101164.75;5062267;28;45394;-61
2023/12/30 06:03:09;;;;;;;;;6.00;6.00;;;;;9.36;83.47;101188.66;5060580;28;45359;-63
2023/12/30 06:05:34;;;;;;;;;6.75;6.75;;;;;9.33;83.16;101199.09;5059697;28;45556;-62
2023/12/30 06:08:00;;;;;;;;;7.50;6.00;;;;;9.31;83.63;101203.41;5061055;28;45604;-64
2023/12/30 06:10:25;;;;;;;;;7.50;4.00;;;;;9.34;83.65;101200.81;5057715;28;45646;-61
2023/12/30 06:12:51;;;;;;;;;6.50;4.75;;;;;9.33;83.46;101199.09;5040086;28;45619;-63
2023/12/30 06:15:20;;;;;;;;;6.75;4.75;;;;;9.38;83.62;101200.03;5043184;28;45285;-62
2023/12/30 06:17:45;;;;;;;;;8.00;5.00;;;;;9.37;83.26;101210.44;5047562;28;45591;-64
2023/12/30 06:20:11;;;;;;;;;5.50;3.00;;;;;9.25;83.55;101190.22;5043134;28;46079;-63
2023/12/30 06:22:37;;;;;;;;;8.25;5.00;;;;;9.25;83.94;101193.72;5051949;28;46006;-63
2023/12/30 06:25:03;;;;;;;;;4.50;4.00;;;;;9.24;83.56;101194.59;5039845;28;45444;-62
2023/12/30 06:27:29;;;;;;;;;8.00;3.75;;;;;9.28;83.61;101206.84;5042519;28;45482;-64
2023/12/30 06:29:54;;;;;;;;;7.25;3.50;;;;;9.34;83.79;101212.16;5043877;28;45430;-65
2023/12/30 06:32:20;;;;;;;;;4.25;4.00;;;;;9.38;83.42;101213.09;5052853;28;45669;-66
2023/12/30 06:34:45;;;;;;;;;8.75;4.00;;;;;9.39;83.51;101208.72;5040159;28;45428;-66
2023/12/30 06:37:11;;;;;;;;;3.00;3.00;;;;;9.44;82.96;101225.38;5024335;28;45567;-62
2023/12/30 06:39:37;;;;;;;;;4.75;3.25;;;;;9.43;83.30;101219.25;5056850;28;45330;-70
2023/12/30 06:42:02;;;;;;;;;3.25;3.25;;;;;9.37;83.41;101207.84;5053132;28;45552;-69
2023/12/30 06:44:28;;;;;;;;;6.75;5.00;;;;;9.40;83.41;101226.19;5053665;28;45445;-60
2023/12/30 06:46:53;;;;;;;;;5.25;3.25;;;;;9.28;83.75;101206.84;5045708;28;45423;-73
2023/12/30 06:49:19;;;;;;;;;5.00;4.00;;;;;9.41;83.47;101223.59;5058909;28;45307;-61
2023/12/30 06:51:45;;;;;;;;;7.00;4.25;;;;;9.42;83.93;101227.06;5059267;28;45351;-59
2023/12/30 06:54:17;;;;;;;;;5.00;2.25;;;;;9.39;83.54;101219.19;5060701;28;45244;-60
2023/12/30 06:56:44;;;;;;;;;7.00;5.00;;;;;9.39;83.66;101221.81;5039921;28;45550;-60
2023/12/30 06:59:09;;;;;;;;;3.25;3.00;;;;;9.43;83.99;101227.09;5041524;28;45492;-60
2023/12/30 07:01:39;;;;;;;;;7.50;4.00;;;;;9.44;83.94;101222.75;5041050;28;46511;-61
2023/12/30 07:04:05;;;;;;;;;3.00;2.00;;;;;9.40;83.81;101229.69;5026474;28;45453;-64
2023/12/30 07:06:35;;;;;;;;;3.00;3.00;;;;;9.33;83.94;101209.53;5054675;28;45399;-59
2023/12/30 07:09:01;;;;;;;;;7.25;4.25;;;;;9.40;83.98;101221.84;5041417;28;45906;-62
2023/12/30 07:11:26;;;;;;;;;6.00;4.00;;;;;9.36;84.20;101219.16;5041861;28;45431;-62
2023/12/30 07:13:52;;;;;;;;;4.75;2.75;;;;;9.22;84.06;101203.25;5039818;28;45475;-60
2023/12/30 07:16:18;;;;;;;;;6.00;3.00;;;;;9.42;84.31;101229.69;5024014;28;45649;-60
2023/12/30 07:18:45;;;;;;;;;4.50;3.00;;;;;9.37;84.12;101218.28;5046921;28;45898;-63
2023/12/30 07:21:11;;;;;;;;;6.75;4.00;;;;;8.98;83.97;101152.38;5041694;28;46245;-60
2023/12/30 07:23:37;;;;;;;;;11.75;5.50;;;;;9.36;84.33;101220.03;5043706;28;45442;-60
2023/12/30 07:26:02;;;;;;;;;6.00;4.50;;;;;9.28;84.30;101213.81;5041812;28;45392;-60
2023/12/30 07:28:29;;;;;;;;;5.00;3.75;;;;;9.33;84.47;101227.84;5044718;28;45622;-60
2023/12/30 07:30:54;;;;;;;;;3.75;3.00;;;;;9.31;84.86;101229.53;5042498;28;45383;-62
2023/12/30 07:33:20;;;;;;;;;6.00;3.50;;;;;9.28;84.66;101214.69;5033596;28;45444;-63
2023/12/30 07:35:45;;;;;;;;;8.75;4.00;;;;;9.27;85.13;101218.16;5039784;28;45493;-71
2023/12/30 07:38:11;;;;;;;;;7.25;4.00;;;;;9.26;85.08;101221.63;5059986;28;45388;-61
2023/12/30 07:40:37;;;;;;;;;8.25;5.00;;;;;9.25;85.08;101206.78;5057177;28;46706;-70
2023/12/30 07:43:03;;;;;;;;;4.50;4.00;;;;;9.29;85.01;101212.94;5034890;28;45541;-62
2023/12/30 07:45:33;;;;;;;;;6.00;2.00;;;;;9.11;85.06;101175.25;5048684;28;45349;-61
2023/12/30 07:48:03;;;;;;;;;5.75;4.00;;;;;9.33;84.76;101213.03;5039584;28;45606;-64
2023/12/30 07:50:29;;;;;;;;;7.25;3.00;;;;;9.28;84.73;101201.63;5031639;28;45551;-69
2023/12/30 07:52:55;;;;;;;;;4.75;3.00;;;;;9.38;84.02;101207.00;5053113;28;45457;-69
2023/12/30 07:55:20;;;;;;;;;5.00;3.00;;;;;9.44;83.72;101200.09;5051008;28;45562;-62
2023/12/30 07:57:46;;;;;;;;;7.50;4.25;;;;;9.42;83.62;101196.59;5057241;28;45312;-61
2023/12/30 08:00:12;;;;;;;;;8.50;4.00;;;;;9.49;82.41;101208.00;5042421;28;46388;-60
2023/12/30 08:02:38;;;;;;;;;5.25;3.00;;;;;9.45;81.95;101201.88;5045798;28;45662;-63
2023/12/30 08:05:04;;;;;;;;;8.50;4.75;;;;;9.33;82.18;101173.81;5052190;28;45615;-60
2023/12/30 08:07:31;;;;;;;;;8.00;4.00;;;;;9.55;81.68;101208.97;5038351;28;45380;-62
2023/12/30 08:09:57;;;;;;;;;6.00;4.50;;;;;9.67;81.44;101215.22;5039352;28;46051;-61
2023/12/30 08:12:22;;;;;;;;;5.00;4.00;;;;;9.70;81.52;101204.81;5042837;28;45397;-62
2023/12/30 08:14:48;;;;;;;;;3.50;3.50;;;;;9.80;80.67;101206.69;5045067;28;45517;-62
2023/12/30 08:17:16;;;;;;;;;6.00;3.00;;;;;9.95;81.02;101199.03;5045923;28;45461;-61
2023/12/30 08:19:42;;;;;;;;;4.00;3.75;;;;;10.31;79.66;101217.78;5042893;28;45358;-62
2023/12/30 08:22:11;;;;;;;;;5.50;3.50;;;;;10.48;78.70;101203.09;5047216;28;45495;-62
2023/12/30 08:24:37;;;;;;;;;3.67;3.00;;;;;10.67;78.37;101212.03;5030937;28;45389;-59
2023/12/30 08:27:03;;;;;;;;;6.25;2.00;;;;;10.73;78.51;101217.34;5054903;28;45407;-63
2023/12/30 08:29:29;;;;;;;;;5.75;3.75;;;;;10.79;78.33;101212.13;5049421;28;45528;-64
2023/12/30 08:32:00;;;;;;;;;4.00;2.67;;;;;10.76;78.26;101211.25;5048822;28;45380;-63
2023/12/30 08:34:27;;;;;;;;;13.00;7.00;;;;;10.75;78.19;101199.88;5042205;28;45496;-65
2023/12/30 08:37:00;;;;;;;;;3.67;3.67;;;;;10.86;78.30;101202.59;5050931;28;45566;-61
2023/12/30 08:39:27;;;;;;;;;4.33;4.00;;;;;10.80;78.60;101192.06;5054552;28;45570;-63
2023/12/30 08:41:52;;;;;;;;;6.33;4.00;;;;;10.29;78.53;101114.78;5039142;28;45513;-62
2023/12/30 08:44:18;;;;;;;;;3.00;3.00;;;;;10.75;78.59;101173.69;5037002;28;45394;-62
2023/12/30 08:46:43;;;;;;;;;7.00;3.67;;;;;10.46;79.09;101133.25;5020425;28;45492;-61
2023/12/30 08:49:09;;;;;;;;;6.00;5.00;;;;;10.44;79.18;101124.50;5037868;28;46317;-64
2023/12/30 08:51:35;;;;;;;;;6.33;3.00;;;;;10.79;79.08;101166.72;5038400;28;45534;-61
2023/12/30 08:54:00;;;;;;;;;8.67;3.33;;;;;10.82;79.51;101175.50;5037446;28;45418;-61
2023/12/30 08:56:32;;;;;;;;;5.00;2.00;;;;;10.63;79.54;101121.19;5037849;28;45304;-63
2023/12/30 08:58:58;;;;;;;;;4.33;2.33;;;;;11.34;78.79;101177.59;5037478;28;46272;-62
2023/12/30 09:01:24;;;;;;;;;5.67;4.00;;;;;11.41;77.81;101165.38;5045734;28;45529;-60
2023/12/30 09:03:50;;;;;;;;;6.25;5.00;;;;;11.57;76.87;101168.97;5039355;28;45561;-64
2023/12/30 09:06:15;;;;;;;;;7.67;5.00;;;;;11.49;77.25;101160.19;5043806;28;45537;-61
2023/12/30 09:08:41;;;;;;;;;6.00;3.67;;;;;11.39;77.27;101168.00;5040577;28;46159;-62
2023/12/30 09:11:21;;;;;;;;;5.67;5.67;;;;;11.09;78.08;101141.59;5037792;28;45466;-65
2023/12/30 09:13:51;;;;;;;;;7.00;5.75;;;;;10.87;77.90;101110.00;5037510;28;45857;-61
2023/12/30 09:16:17;;;;;;;;;4.00;4.00;;;;;10.91;78.08;101071.59;5038554;28;45324;-62
2023/12/30 09:18:42;;;;;;;;;6.67;6.00;;;;;11.85;76.47;101151.59;5038556;28;45910;-60
2023/12/30 09:21:08;;;;;;;;;5.67;3.67;;;;;12.60;74.74;101151.78;5037210;28;45511;-58
2023/12/30 09:23:34;;;;;;;;;6.33;3.00;;;;;13.18;72.64;101153.47;5038589;28;45586;-68
2023/12/30 09:26:00;;;;;;;;;11.00;3.00;;;;;13.32;70.69;101093.84;5038728;28;45522;-61
2023/12/30 09:28:25;;;;;;;;;5.00;3.33;;;;;14.17;69.43;101149.56;5046749;28;46331;-67
2023/12/30 09:31:02;;;;;;;;;7.33;5.00;;;;;14.47;67.51;101146.75;5039699;28;45550;-63
2023/12/30 09:33:28;;;;;;;;;6.00;5.00;;;;;14.69;66.60;101152.72;5037106;28;45459;-61
2023/12/30 09:35:54;;;;;;;;;8.67;6.00;;;;;15.01;64.84;101149.81;5037761;28;45510;-61
2023/12/30 09:38:29;;;;;;;;;7.67;5.67;;;;;14.96;64.59;101119.97;5041504;28;45242;-60
2023/12/30 09:40:54;;;;;;;;;8.67;5.33;;;;;15.10;63.90;101157.66;5057707;28;45397;-59
2023/12/30 09:43:26;;;;;;;;;8.33;6.00;;;;;14.87;64.29;101135.91;5057536;28;45232;-62
2023/12/30 09:45:54;;;;;;;;;4.67;4.67;;;;;15.36;62.93;101161.78;5056626;28;45404;-60
2023/12/30 09:48:24;;;;;;;;;6.67;5.33;;;;;15.65;62.04;101149.09;5055842;28;45518;-61
2023/12/30 09:50:51;;;;;;;;;8.33;5.00;;;;;15.95;61.35;101147.00;5056276;28;45450;-60
2023/12/30 09:53:19;;;;;;;;;7.67;5.33;;;;;15.66;60.43;101113.00;5056236;28;45441;-67
2023/12/30 09:55:50;;;;;;;;;5.67;3.67;;;;;15.29;61.36;101117.88;5039564;28;45472;-60
2023/12/30 09:58:17;;;;;;;;;5.67;4.00;;;;;16.03;60.76;101144.25;5055603;28;46089;-62
2023/12/30 10:00:43;;;;;;;;;8.33;5.67;;;;;16.64;59.15;101147.75;5056129;28;45392;-62
2023/12/30 10:03:14;;;;;;;;;9.67;8.00;;;;;16.79;57.91;101131.63;5056569;28;45865;-62
2023/12/30 10:05:41;;;;;;;;;7.00;4.00;;;;;16.97;57.43;101117.22;5038744;28;45273;-64
2023/12/30 10:08:07;;;;;;;;;6.00;4.33;;;;;17.64;54.92;101135.31;5050480;28;45608;-70
2023/12/30 10:10:47;;;;;;;;;5.67;4.67;;;;;16.82;56.50;101133.34;5056614;28;45468;-64
2023/12/30 10:13:14;;;;;;;;;7.67;5.00;;;;;16.08;58.77;101140.63;5058302;28;45534;-61
2023/12/30 10:15:42;;;;;;;;;6.00;4.00;;;;;14.93;60.30;101054.97;5048544;28;45426;-60
2023/12/30 10:18:08;;;;;;;;;5.00;3.33;;;;;14.59;62.01;101105.41;5059173;28;45503;-62
2023/12/30 10:20:38;;;;;;;;;5.00;4.33;;;;;14.11;63.59;101111.84;5041772;28;45534;-61
2023/12/30 10:23:04;;;;;;;;;5.33;4.67;;;;;13.60;64.59;101063.91;5040124;28;45403;-62
2023/12/30 10:25:30;;;;;;;;;5.00;5.00;;;;;13.49;66.33;101100.78;5043387;28;45521;-62
2023/12/30 10:27:56;;;;;;;;;5.33;5.00;;;;;13.21;67.50;101132.41;5044084;28;45388;-64
2023/12/30 10:30:22;;;;;;;;;4.67;4.00;;;;;12.70;69.12;101100.94;5043323;28;45490;-65
2023/12/30 10:32:47;;;;;;;;;4.67;4.67;;;;;12.08;70.38;101034.41;5046130;28;45449;-62
2023/12/30 10:35:14;;;;;;;;;6.00;6.00;;;;;12.42;71.13;101086.06;5044181;28;45505;-64
2023/12/30 10:37:43;;;;;;;;;5.67;4.00;;;;;12.56;71.90;101121.09;5042558;28;45772;-63
2023/12/30 10:40:09;;;;;;;;;10.00;4.33;;;;;12.16;72.30;101065.94;5058656;28;45572;-60
2023/12/30 10:42:36;;;;;;;;;5.33;5.33;;;;;12.32;73.76;101126.38;5058955;28;45506;-60
2023/12/30 10:45:02;;;;;;;;;3.33;3.33;;;;;11.91;74.10;101058.88;5059423;28;45336;-66
2023/12/30 10:47:33;;;;;;;;;6.67;4.33;;;;;11.91;74.48;101032.63;5056560;28;46104;-62
2023/12/30 10:50:04;;;;;;;;;6.00;5.67;;;;;12.58;73.45;101108.84;5055025;28;45402;-74
2023/12/30 10:52:34;;;;;;;;;7.00;4.33;;;;;12.32;73.67;101039.69;5044780;28;46082;-68
2023/12/30 10:55:10;;;;;;;;;7.33;5.33;;;;;12.25;74.20;101065.06;5040081;28;45363;-65
2023/12/30 10:57:37;;;;;;;;;7.00;4.67;;;;;12.18;74.57;101082.56;5041903;28;45496;-65
2023/12/30 11:00:09;;;;;;;;;6.33;5.67;;;;;11.43;75.95;100990.53;5048966;28;45371;-66
2023/12/30 11:02:36;;;;;;;;;6.33;6.00;;;;;11.80;76.84;101064.09;5023079;28;45545;-61
2023/12/30 11:05:09;;;;;;;;;2.00;1.00;;;;;11.56;76.93;101030.81;5059037;28;45501;-69
2023/12/30 11:07:35;;;;;;;;;6.00;4.33;;;;;11.49;77.96;101024.66;5041795;28;45734;-71
2023/12/30 11:10:18;;;;;;;;;12.33;5.33;;;;;10.79;77.36;100888.97;5058727;28;45436;-63
2023/12/30 11:12:49;;;;;;;;;8.00;6.33;;;;;11.78;78.54;101066.72;5059300;28;45474;-65
2023/12/30 11:15:29;;;;;;;;;6.33;4.67;;;;;11.57;78.17;101041.28;5058164;28;45421;-61
2023/12/30 11:17:58;;;;;;;;;11.00;5.00;;;;;11.72;78.99;101071.06;5050974;28;46405;-60
2023/12/30 11:20:27;;;;;;;;;8.33;6.33;;;;;11.59;79.20;101051.78;5056690;28;45519;-59
2023/12/30 11:22:55;;;;;;;;;7.33;6.33;;;;;11.38;79.17;101023.75;5059200;28;45716;-67
2023/12/30 11:25:21;;;;;;;;;6.67;5.00;;;;;11.55;79.79;101053.50;5060873;28;45475;-63